Weather reports worldwide

Advertisment
San Fernando, Spain (8453): temperature & dewpoint: 13.03.2019 09:00:00 - 19.03.2019 09:00:00 (CET)San Fernando, Spain (8453): wind speed & gusts: 13.03.2019 09:00:00 - 19.03.2019 09:00:00 (CET)San Fernando, Spain (8453): wind direction: 13.03.2019 09:00:00 - 19.03.2019 09:00:00 (CET)San Fernando, Spain (8453): reduced air pressure: 13.03.2019 09:00:00 - 19.03.2019 09:00:00 (CET)San Fernando, Spain (8453): precipitation: 13.03.2019 09:00:00 - 19.03.2019 09:00:00 (CET)
Date & Time tt [°C] td [°C] ff [km/h] ff [kn] fx [km/h] fx [kn] dd ppp [hPa] rr [mm]
19.03.2019 09:00:00 13,3 10,9 6 3 12 7 ENE 1022,0 0,0
19.03.2019 08:00:00 12,0 9,9 5 3 14 8 ENE 1021,5 0,0
19.03.2019 07:00:00 12,2 10,0 7 4 14 8 E 1021,1 -
19.03.2019 06:00:00 12,5 10,0 9 5 15 8 E 1021,1 0,0
19.03.2019 05:00:00 13,0 10,5 9 5 15 8 E 1021,1 0,0
19.03.2019 04:00:00 13,3 10,6 7 4 18 10 ENE 1021,4 0,0
19.03.2019 03:00:00 13,7 10,6 8 4 18 10 E 1021,9 0,0
19.03.2019 02:00:00 14,3 11,1 10 5 22 12 E 1022,2 0,0
19.03.2019 01:00:00 14,4 11,0 8 4 16 9 E 1022,2 -
19.03.2019 00:00:00 14,4 10,6 8 4 19 10 ESE 1022,2 0,0
18.03.2019 23:00:00 14,6 10,4 8 5 20 11 SE 1022,3 0,0
18.03.2019 22:00:00 15,2 11,0 6 3 16 9 ESE 1022,3 0,0
18.03.2019 21:00:00 15,1 10,6 0 0 8 4 W 1021,9 0,0
18.03.2019 20:00:00 15,7 11,1 5 3 14 8 W 1021,4 0,0
18.03.2019 19:00:00 16,3 10,6 8 4 18 10 W 1020,9 -
18.03.2019 18:00:00 16,7 10,8 10 5 21 12 W 1020,4 0,0
18.03.2019 17:00:00 16,6 10,6 13 7 21 11 W 1020,3 0,0
18.03.2019 16:00:00 16,7 10,8 14 8 26 14 W 1020,3 0,0
18.03.2019 15:00:00 16,8 11,1 16 9 26 14 W 1020,7 0,0
18.03.2019 14:00:00 16,9 11,0 15 8 24 13 W 1021,2 0,0
18.03.2019 13:00:00 17,2 10,3 9 5 16 8 W 1021,3 -
18.03.2019 12:00:00 17,0 10,2 4 2 13 7 NW 1021,6 0,0
18.03.2019 11:00:00 16,5 10,2 3 2 12 7 NW 1021,8 0,0
18.03.2019 10:00:00 14,8 9,8 5 3 14 7 N 1021,5 0,0
18.03.2019 09:00:00 13,2 10,0 5 3 14 7 N 1020,8 0,0
18.03.2019 08:00:00 12,3 9,2 5 3 11 6 N 1019,9 0,0
18.03.2019 07:00:00 12,7 9,2 5 3 11 6 N 1019,9 -
18.03.2019 06:00:00 13,3 9,3 3 1 13 7 N 1019,2 0,0
18.03.2019 05:00:00 14,1 9,9 5 3 24 13 NNE 1019,0 0,0
18.03.2019 04:00:00 14,8 10,2 10 6 32 17 NNW 1019,0 0,0
18.03.2019 03:00:00 15,4 10,2 10 5 25 14 NNW 1019,4 0,0
18.03.2019 02:00:00 15,9 10,2 11 6 29 15 NNW 1019,7 0,0
18.03.2019 01:00:00 16,4 10,3 11 6 27 14 NNW 1019,8 -
18.03.2019 00:00:00 17,1 11,1 16 9 27 15 NW 1020,1 0,0
17.03.2019 23:00:00 17,0 11,7 13 7 21 11 NW 1020,0 0,0
17.03.2019 22:00:00 16,9 11,6 13 7 24 13 WNW 1020,0 0,0
17.03.2019 21:00:00 17,0 11,7 13 7 23 13 WNW 1019,6 0,0
17.03.2019 20:00:00 17,7 9,8 17 9 27 14 WNW 1019,2 0,0
17.03.2019 19:00:00 18,4 10,5 14 8 23 13 WNW 1019,0 -
17.03.2019 18:00:00 18,7 10,3 16 9 26 14 WNW 1018,9 0,0
17.03.2019 17:00:00 18,9 9,9 15 8 24 13 WNW 1019,2 0,0
17.03.2019 16:00:00 19,3 10,9 9 5 21 12 WNW 1019,3 0,0
17.03.2019 15:00:00 17,3 11,3 14 7 21 12 WNW 1020,1 0,0
17.03.2019 14:00:00 17,0 11,0 13 7 23 12 W 1020,9 0,0
17.03.2019 13:00:00 17,1 12,0 8 5 14 8 WNW 1021,4 -
17.03.2019 12:00:00 15,9 12,8 1 1 12 6 NE 1021,9 0,0
17.03.2019 11:00:00 13,6 12,5 4 2 16 9 N 1022,0 0,0
17.03.2019 10:00:00 13,1 12,1 4 2 16 9 N 1022,1 0,0
17.03.2019 09:00:00 11,9 11,0 3 1 8 4 E 1021,2 0,0
17.03.2019 08:00:00 11,4 10,4 4 2 8 4 ESE 1020,5 0,0
17.03.2019 07:00:00 12,1 11,1 4 2 6 4 E 1019,9 -
17.03.2019 06:00:00 12,1 11,0 5 3 10 5 E 1019,7 0,0
17.03.2019 05:00:00 13,0 11,9 1 1 6 4 NE 1019,3 0,0
17.03.2019 04:00:00 13,2 11,9 1 0 9 5 N 1019,3 0,0
17.03.2019 03:00:00 13,5 12,2 0 0 8 4 E 1019,3 0,0
17.03.2019 02:00:00 14,4 13,0 3 2 8 4 NE 1019,5 0,0
17.03.2019 01:00:00 14,9 13,5 2 1 10 5 N 1019,7 -
17.03.2019 00:00:00 15,3 13,9 4 2 8 5 WNW 1020,0 0,0
16.03.2019 23:00:00 15,5 14,0 7 4 10 6 W 1020,2 0,0
16.03.2019 22:00:00 15,7 13,8 6 3 12 7 W 1020,3 0,0
16.03.2019 21:00:00 16,0 14,0 9 5 15 8 WSW 1019,8 0,0
16.03.2019 20:00:00 17,0 12,7 9 5 17 9 SW 1019,5 0,0
16.03.2019 19:00:00 19,1 11,7 8 5 23 12 S 1019,2 -
16.03.2019 18:00:00 20,9 11,6 10 5 24 13 S 1019,3 0,0
16.03.2019 17:00:00 22,2 8,7 10 5 30 16 SW 1019,3 0,0
16.03.2019 16:00:00 23,9 8,0 16 9 32 17 S 1019,3 0,0
16.03.2019 15:00:00 23,7 8,9 16 9 30 16 SSW 1019,8 0,0
16.03.2019 14:00:00 24,0 8,4 16 9 31 17 S 1020,3 0,0
16.03.2019 13:00:00 23,5 8,0 10 5 24 13 S 1021,0 -
16.03.2019 12:00:00 24,8 6,1 7 4 25 14 SSE 1021,1 0,0
16.03.2019 11:00:00 22,5 5,5 9 5 19 10 ESE 1021,3 0,0
16.03.2019 10:00:00 19,2 3,8 7 4 16 9 ESE 1021,5 0,0
16.03.2019 09:00:00 15,0 1,1 0 0 8 5 E 1021,4 0,0
16.03.2019 08:00:00 13,3 -0,5 6 3 11 6 E 1021,0 0,0
16.03.2019 07:00:00 13,5 -0,3 8 4 11 6 E 1020,9 -
16.03.2019 06:00:00 13,8 0,0 3 2 13 7 ENE 1020,8 0,0
16.03.2019 05:00:00 14,3 0,4 6 3 23 12 ENE 1020,5 0,0
16.03.2019 04:00:00 14,6 0,9 16 9 27 14 E 1020,7 0,0
16.03.2019 03:00:00 14,6 1,1 13 7 28 15 E 1021,5 0,0
16.03.2019 02:00:00 14,7 0,9 15 8 29 16 E 1022,1 0,0
16.03.2019 01:00:00 15,6 0,9 14 7 29 15 E 1022,5 -
16.03.2019 00:00:00 16,1 1,1 10 5 23 12 E 1022,9 0,0
15.03.2019 23:00:00 16,6 1,1 8 4 23 12 E 1022,9 0,0
15.03.2019 22:00:00 17,2 1,3 14 8 24 13 ESE 1022,7 0,0
15.03.2019 21:00:00 17,9 1,9 2 1 15 8 E 1022,5 0,0
15.03.2019 20:00:00 19,5 2,9 6 3 18 10 SE 1022,3 0,0
15.03.2019 19:00:00 22,4 3,4 8 5 22 12 ESE 1022,0 -
15.03.2019 18:00:00 24,3 4,6 10 6 28 15 ESE 1021,9 0,0
15.03.2019 17:00:00 25,0 4,1 14 8 36 19 E 1021,8 0,0
15.03.2019 16:00:00 25,8 5,9 11 6 27 15 ESE 1022,1 0,0
15.03.2019 15:00:00 25,5 5,6 13 7 32 17 ESE 1022,6 0,0
15.03.2019 14:00:00 24,9 6,5 12 6 30 16 ESE 1023,4 0,0
15.03.2019 13:00:00 24,2 7,7 12 7 31 17 ESE 1024,0 -
15.03.2019 12:00:00 23,0 7,1 13 7 29 16 ESE 1024,4 0,0
15.03.2019 11:00:00 20,7 6,5 13 7 26 14 E 1024,8 0,0
15.03.2019 10:00:00 17,1 6,2 13 7 24 13 E 1024,8 0,0
15.03.2019 09:00:00 14,0 5,3 10 5 16 9 ENE 1024,8 0,0
15.03.2019 08:00:00 12,2 4,6 7 4 19 10 ENE 1024,6 0,0
15.03.2019 07:00:00 12,6 4,1 6 3 16 9 ENE 1024,3 -
15.03.2019 06:00:00 13,0 5,1 11 6 24 13 E 1023,8 0,0
15.03.2019 05:00:00 12,7 6,1 14 7 28 15 E 1024,0 0,0
15.03.2019 04:00:00 13,4 7,1 18 10 27 15 E 1024,1 0,0
15.03.2019 03:00:00 13,4 8,3 14 8 26 14 E 1024,8 0,0
15.03.2019 02:00:00 13,6 9,0 11 6 26 14 ESE 1024,8 0,0
15.03.2019 01:00:00 13,6 8,3 14 8 25 13 E 1025,3 -
15.03.2019 00:00:00 14,2 6,2 10 5 19 11 E 1025,6 0,0
14.03.2019 23:00:00 14,7 5,8 8 4 21 11 E 1025,7 0,0
14.03.2019 22:00:00 15,5 4,8 9 5 19 10 E 1025,5 0,0
14.03.2019 21:00:00 16,9 5,1 7 4 14 8 E 1025,3 0,0
14.03.2019 20:00:00 18,2 6,4 7 4 16 9 E 1025,2 0,0
14.03.2019 19:00:00 19,7 9,8 1 1 16 8 SSW 1024,9 -
14.03.2019 18:00:00 21,2 9,2 6 3 21 11 W 1024,7 0,0
14.03.2019 17:00:00 23,1 7,6 12 6 26 14 E 1024,8 0,0
14.03.2019 16:00:00 23,3 8,5 11 6 29 16 E 1025,0 0,0
14.03.2019 15:00:00 22,8 8,5 15 8 32 18 E 1025,4 0,0
14.03.2019 14:00:00 22,5 9,3 16 9 39 21 E 1025,9 0,0
14.03.2019 13:00:00 21,7 9,3 17 9 37 20 E 1026,9 -
14.03.2019 12:00:00 20,8 9,7 14 8 29 16 E 1027,5 0,0
14.03.2019 11:00:00 18,7 11,0 14 7 27 15 E 1027,8 0,0
14.03.2019 10:00:00 14,3 9,0 11 6 19 10 E 1027,5 0,0
14.03.2019 09:00:00 11,7 8,1 5 3 10 5 ENE 1027,1 0,0
14.03.2019 08:00:00 10,6 7,8 3 2 9 5 NE 1026,4 0,0
14.03.2019 07:00:00 11,1 8,8 3 2 8 5 NE 1026,1 -
14.03.2019 06:00:00 11,3 9,0 3 2 7 4 E 1025,9 0,0
14.03.2019 05:00:00 11,1 8,7 4 2 10 5 E 1025,8 0,0
14.03.2019 04:00:00 11,4 8,1 6 3 14 8 E 1025,8 0,0
14.03.2019 03:00:00 11,1 7,0 7 4 13 7 E 1026,1 0,0
14.03.2019 02:00:00 12,1 7,1 6 3 10 6 E 1026,1 0,0
14.03.2019 01:00:00 13,9 8,5 2 1 9 5 N 1025,8 -
14.03.2019 00:00:00 13,0 8,5 5 3 13 7 E 1026,3 0,0
13.03.2019 23:00:00 15,5 10,5 4 2 6 4 NNE 1026,0 0,0
13.03.2019 22:00:00 16,1 11,4 0 0 9 5 W 1025,8 0,0
13.03.2019 21:00:00 16,3 10,4 6 3 14 8 W 1025,8 0,0
13.03.2019 20:00:00 16,6 9,3 8 4 21 11 WNW 1025,7 0,0
13.03.2019 19:00:00 17,2 8,1 11 6 27 14 W 1025,6 -
13.03.2019 18:00:00 17,3 8,1 18 10 29 16 WNW 1025,2 0,0
13.03.2019 17:00:00 17,1 9,3 18 10 29 16 WNW 1025,2 0,0
13.03.2019 16:00:00 16,4 9,3 18 10 32 17 W 1025,3 0,0
13.03.2019 15:00:00 - - - - - - - - -
13.03.2019 14:00:00 15,6 9,3 19 10 32 18 WNW 1026,5 0,0
13.03.2019 13:00:00 15,5 9,4 22 12 34 18 WNW 1026,9 -
13.03.2019 12:00:00 16,4 9,0 14 7 24 13 NW 1027,2 0,0
13.03.2019 11:00:00 16,0 9,2 10 6 29 16 NNW 1027,3 0,0
13.03.2019 10:00:00 14,7 9,3 13 7 27 14 NNW 1027,1 0,0
13.03.2019 09:00:00 13,3 9,2 11 6 27 14 NNW 1026,5 0,0

tt = temperature
td = dewpoint
ff = wind speed
fx = gusts
dd = wind direction
ppp = reduced air pressure
rr = precipitation

Next stations